Event-Kalender
Terminkalender Drucken Email help
Jahresansicht Monatsansicht Wochenansicht Heute Suche Zum ausgwählten Monat wechseln
Termine für
Freitag, 11. August 2017



JEvents v1.5.5e   Copyright © 2006-2011

Zufallsbild

Aktuelle Termine

Mo Di Mi Do Fr Sa So
31 1 2 3 4 5 6
7 8 9 10 11 12 13
14 15 16 17 18 19 20
21 22 23 24 25 26 27
28 29 30 31 1 2 3

Pilotenwetter

[source: ADDS]
METAR
EDDH 212250Z 16007KT 9999 FEW040 12/11 Q1010 NOSIG =
TAF
TAF EDDH 211700Z 2118/2224 19008KT 4000 -DZ BKN007 BECMG 2118/2120 9999 BKN025 PROB30 TEMPO 2118/2122 SHRA BKN020CB TEMPO 2208/2215 20015G25KT 4000 RADZ BKN008 =